Airfield :
LOGIN :

Register | Disclaimer

   EN    FR    IT 

 










Legend :    VFR   Marginal VFR   IFR   Intensive IFR   Very Intensive IFR
Visi :
Ceiling :
>= 8 km
>= 3000ft
5 to 8 km
1000 to 3000 ft
1500m to 5 km
500 to 1000 ft
800 to 1500m
200 to 500 ft
< 800m
< 200 ft
Symbols :   Thunderstorms  Fog  Heavy snow  Heavy precipitations  Wind > 20 kt
SIGMETs :     Misc.  Thunderstorms  Icing  Turbulence  Mountain Waves  Volcanic Ashes







- Airport Elevation : 160 ft
- IATA code : LRT
- Download approach charts


LFRH - Lorient Lann Bihoue

CURRENT METAR :
  • 192130Z AUTO 05007KT CAVOK 01/M02 Q1009 NOSIG

EXPIRED METARs :
  • 192100Z AUTO 06007KT CAVOK 01/M02 Q1009 NOSIG
  • 192030Z AUTO 05011KT CAVOK 02/M01 Q1010 NOSIG
  • 192000Z AUTO 06011KT CAVOK 02/M02 Q1010 NOSIG
  • 191930Z AUTO 07015KT CAVOK 03/M02 Q1010 BECMG 06012G22KT
  • 191900Z AUTO 06017KT CAVOK 03/M02 Q1010 BECMG 06012G22KT
  • 191830Z AUTO 06014KT CAVOK 03/M03 Q1010 NOSIG

TAF TAF LFRH
Valid from the 19 at 18:00 until the 20 at 18:00 UTC


191700Z 1918/2018 06012G22KT CAVOK
BECMG 2000/2002 03010KT
BECMG 2011/2013 BKN030
No reported NOTAMs for that airfield.



MET'MAP, your aeronautical weather chart ! - Copyright ORBIFLY December 2007 - Disclaimer

ORBIFLY MET'MAP TEAM :

Programming & Development : Alexandra Zaïnal
Concept & Development : Baudouin d'Aumeries
Co-Development & Prog : Marc-Olivier Méhu
Technical & hardware support : Manuel Goepfert

Contact : metmap@orbifly.com




SOURCES & CREDITS :

   NOAA